In Rescue
 
Open Full Screen Window  High Contrast Mode
Wind Gusting 12 knots
05
April 02, 2020 11:40 PM EDT
Weather Information
Wind Direction
  VRB °
Wind Speed
  05 kt (6 mph)
Wind Gust
  12 kt (14 mph)
Altimeter
29.72 in
Visibility
10 SM
Temperature
09° C
48° F
Dewpoint
-03° C
27° F
Humidity
43%
1hr Rain Fall
00.00 in.
24hr Rain Fall
00.00 in.
Sky Condition
Clear
VFR

METAR KUKT 030340Z AUTO VRB05G12KT 10SM CLR 09/M03 A2972 RMK A01

FAA Disclaimer: The data displayed is for advisory purposes only and is not to be used for flight planning or operations.